sensor_id;sensor_type;location;lat;lon;timestamp;temperature;humidity
1948;DHT22;974;52.400;9.818;2023-08-06T00:00:38;14.80;99.90
1948;DHT22;974;52.400;9.818;2023-08-06T00:03:04;14.80;99.90
1948;DHT22;974;52.400;9.818;2023-08-06T00:05:29;14.80;99.90
1948;DHT22;974;52.400;9.818;2023-08-06T00:07:58;14.80;99.90
1948;DHT22;974;52.400;9.818;2023-08-06T00:10:26;14.90;99.90
1948;DHT22;974;52.400;9.818;2023-08-06T00:12:51;14.80;99.90
1948;DHT22;974;52.400;9.818;2023-08-06T00:15:17;14.90;99.90
1948;DHT22;974;52.400;9.818;2023-08-06T00:17:43;14.80;99.90
1948;DHT22;974;52.400;9.818;2023-08-06T00:20:08;14.80;99.90
1948;DHT22;974;52.400;9.818;2023-08-06T00:22:35;14.80;99.90
1948;DHT22;974;52.400;9.818;2023-08-06T00:25:02;14.80;99.90
1948;DHT22;974;52.400;9.818;2023-08-06T00:27:34;14.80;99.90
1948;DHT22;974;52.400;9.818;2023-08-06T00:30:02;14.70;99.90
1948;DHT22;974;52.400;9.818;2023-08-06T00:32:28;14.80;99.90
1948;DHT22;974;52.400;9.818;2023-08-06T00:34:53;14.80;99.90
1948;DHT22;974;52.400;9.818;2023-08-06T00:37:19;14.80;99.90
1948;DHT22;974;52.400;9.818;2023-08-06T00:39:44;14.90;99.90
1948;DHT22;974;52.400;9.818;2023-08-06T00:42:11;14.80;99.90
1948;DHT22;974;52.400;9.818;2023-08-06T00:44:40;14.80;99.90
1948;DHT22;974;52.400;9.818;2023-08-06T00:47:07;14.80;99.90
1948;DHT22;974;52.400;9.818;2023-08-06T00:49:36;14.90;99.90
1948;DHT22;974;52.400;9.818;2023-08-06T00:52:04;14.80;99.90
1948;DHT22;974;52.400;9.818;2023-08-06T00:54:30;14.80;99.90
1948;DHT22;974;52.400;9.818;2023-08-06T00:56:56;14.70;99.90
1948;DHT22;974;52.400;9.818;2023-08-06T00:59:23;14.70;99.90
1948;DHT22;974;52.400;9.818;2023-08-06T01:01:48;14.70;99.90
1948;DHT22;974;52.400;9.818;2023-08-06T01:04:15;14.60;99.90
1948;DHT22;974;52.400;9.818;2023-08-06T01:06:48;14.60;99.90
1948;DHT22;974;52.400;9.818;2023-08-06T01:12:12;14.60;99.90
1948;DHT22;974;52.400;9.818;2023-08-06T01:17:14;14.60;99.90
1948;DHT22;974;52.400;9.818;2023-08-06T01:19:39;14.70;99.90
1948;DHT22;974;52.400;9.818;2023-08-06T01:22:05;14.60;99.90
1948;DHT22;974;52.400;9.818;2023-08-06T01:24:30;14.60;99.90
1948;DHT22;974;52.400;9.818;2023-08-06T01:27:21;14.60;99.90
1948;DHT22;974;52.400;9.818;2023-08-06T01:30:02;14.50;99.90
1948;DHT22;974;52.400;9.818;2023-08-06T01:32:32;14.50;99.90
1948;DHT22;974;52.400;9.818;2023-08-06T01:35:00;14.50;99.90
1948;DHT22;974;52.400;9.818;2023-08-06T01:37:27;14.60;99.90
1948;DHT22;974;52.400;9.818;2023-08-06T01:39:52;14.60;99.90
1948;DHT22;974;52.400;9.818;2023-08-06T01:42:18;14.60;99.90
1948;DHT22;974;52.400;9.818;2023-08-06T01:44:44;14.50;99.90
1948;DHT22;974;52.400;9.818;2023-08-06T01:47:09;14.50;99.90
1948;DHT22;974;52.400;9.818;2023-08-06T01:49:35;14.50;99.90
1948;DHT22;974;52.400;9.818;2023-08-06T01:52:03;14.40;99.90
1948;DHT22;974;52.400;9.818;2023-08-06T01:54:29;14.50;99.90
1948;DHT22;974;52.400;9.818;2023-08-06T01:56:54;14.50;99.90
1948;DHT22;974;52.400;9.818;2023-08-06T01:59:20;14.40;99.90
1948;DHT22;974;52.400;9.818;2023-08-06T02:01:46;14.40;99.90
1948;DHT22;974;52.400;9.818;2023-08-06T02:04:11;14.50;99.90
1948;DHT22;974;52.400;9.818;2023-08-06T02:06:40;14.50;99.90
1948;DHT22;974;52.400;9.818;2023-08-06T02:09:05;14.50;99.90
1948;DHT22;974;52.400;9.818;2023-08-06T02:11:31;14.50;99.90
1948;DHT22;974;52.400;9.818;2023-08-06T02:13:56;14.50;99.90
1948;DHT22;974;52.400;9.818;2023-08-06T02:16:22;14.50;99.90
1948;DHT22;974;52.400;9.818;2023-08-06T02:18:47;14.50;99.90
1948;DHT22;974;52.400;9.818;2023-08-06T02:21:13;14.50;99.90
1948;DHT22;974;52.400;9.818;2023-08-06T02:23:38;14.50;99.90
1948;DHT22;974;52.400;9.818;2023-08-06T02:26:04;14.50;99.90
1948;DHT22;974;52.400;9.818;2023-08-06T02:28:30;14.50;99.90
1948;DHT22;974;52.400;9.818;2023-08-06T02:30:56;14.60;99.90
1948;DHT22;974;52.400;9.818;2023-08-06T02:33:22;14.60;99.90
1948;DHT22;974;52.400;9.818;2023-08-06T02:35:47;14.50;99.90
1948;DHT22;974;52.400;9.818;2023-08-06T02:38:13;14.60;99.90
1948;DHT22;974;52.400;9.818;2023-08-06T02:40:45;14.60;99.90
1948;DHT22;974;52.400;9.818;2023-08-06T02:43:12;14.60;99.90
1948;DHT22;974;52.400;9.818;2023-08-06T02:45:37;14.60;99.90
1948;DHT22;974;52.400;9.818;2023-08-06T02:48:03;14.50;99.90
1948;DHT22;974;52.400;9.818;2023-08-06T02:50:28;14.50;99.90
1948;DHT22;974;52.400;9.818;2023-08-06T02:52:54;14.50;99.90
1948;DHT22;974;52.400;9.818;2023-08-06T02:55:20;14.50;99.90
1948;DHT22;974;52.400;9.818;2023-08-06T02:57:45;14.40;99.90
1948;DHT22;974;52.400;9.818;2023-08-06T03:00:11;14.40;99.90
1948;DHT22;974;52.400;9.818;2023-08-06T03:02:37;14.30;99.90
1948;DHT22;974;52.400;9.818;2023-08-06T03:05:03;14.40;99.90
1948;DHT22;974;52.400;9.818;2023-08-06T03:07:32;14.30;99.90
1948;DHT22;974;52.400;9.818;2023-08-06T03:09:59;14.30;99.90
1948;DHT22;974;52.400;9.818;2023-08-06T03:12:27;14.30;99.90
1948;DHT22;974;52.400;9.818;2023-08-06T03:14:55;14.30;99.90
1948;DHT22;974;52.400;9.818;2023-08-06T03:17:21;14.20;99.90
1948;DHT22;974;52.400;9.818;2023-08-06T03:19:52;14.30;99.90
1948;DHT22;974;52.400;9.818;2023-08-06T03:22:18;14.30;99.90
1948;DHT22;974;52.400;9.818;2023-08-06T03:24:43;14.20;99.90
1948;DHT22;974;52.400;9.818;2023-08-06T03:27:12;14.20;99.90
1948;DHT22;974;52.400;9.818;2023-08-06T03:29:37;14.20;99.90
1948;DHT22;974;52.400;9.818;2023-08-06T03:32:03;14.20;99.90
1948;DHT22;974;52.400;9.818;2023-08-06T03:34:29;14.20;99.90
1948;DHT22;974;52.400;9.818;2023-08-06T03:36:54;14.20;99.90
1948;DHT22;974;52.400;9.818;2023-08-06T03:39:20;14.10;99.90
1948;DHT22;974;52.400;9.818;2023-08-06T03:41:45;14.10;99.90
1948;DHT22;974;52.400;9.818;2023-08-06T03:44:11;14.10;99.90
1948;DHT22;974;52.400;9.818;2023-08-06T03:46:36;14.10;99.90
1948;DHT22;974;52.400;9.818;2023-08-06T03:49:02;14.00;99.90
1948;DHT22;974;52.400;9.818;2023-08-06T03:51:27;14.00;99.90
1948;DHT22;974;52.400;9.818;2023-08-06T03:53:53;14.00;99.90
1948;DHT22;974;52.400;9.818;2023-08-06T03:56:18;14.00;99.90
1948;DHT22;974;52.400;9.818;2023-08-06T03:58:44;14.00;99.90
1948;DHT22;974;52.400;9.818;2023-08-06T04:01:09;14.00;99.90
1948;DHT22;974;52.400;9.818;2023-08-06T04:03:35;13.90;99.90
1948;DHT22;974;52.400;9.818;2023-08-06T04:06:02;13.90;99.90
1948;DHT22;974;52.400;9.818;2023-08-06T04:08:28;13.90;99.90
1948;DHT22;974;52.400;9.818;2023-08-06T04:10:54;13.90;99.90
1948;DHT22;974;52.400;9.818;2023-08-06T04:13:22;13.90;99.90
1948;DHT22;974;52.400;9.818;2023-08-06T04:15:48;13.90;99.90
1948;DHT22;974;52.400;9.818;2023-08-06T04:18:13;13.90;99.90
1948;DHT22;974;52.400;9.818;2023-08-06T04:20:46;13.90;99.90
1948;DHT22;974;52.400;9.818;2023-08-06T04:23:12;13.90;99.90
1948;DHT22;974;52.400;9.818;2023-08-06T04:25:38;13.90;99.90
1948;DHT22;974;52.400;9.818;2023-08-06T04:28:04;13.90;99.90
1948;DHT22;974;52.400;9.818;2023-08-06T04:30:33;13.90;99.90
1948;DHT22;974;52.400;9.818;2023-08-06T04:33:01;13.90;99.90
1948;DHT22;974;52.400;9.818;2023-08-06T04:35:27;13.90;99.90
1948;DHT22;974;52.400;9.818;2023-08-06T04:37:53;13.90;99.90
1948;DHT22;974;52.400;9.818;2023-08-06T04:40:18;13.90;99.90
1948;DHT22;974;52.400;9.818;2023-08-06T04:42:44;14.00;99.90
1948;DHT22;974;52.400;9.818;2023-08-06T04:45:09;14.00;99.90
1948;DHT22;974;52.400;9.818;2023-08-06T04:47:35;14.00;99.90
1948;DHT22;974;52.400;9.818;2023-08-06T04:50:00;14.10;99.90
1948;DHT22;974;52.400;9.818;2023-08-06T04:52:26;14.10;99.90
1948;DHT22;974;52.400;9.818;2023-08-06T04:54:54;14.10;99.90
1948;DHT22;974;52.400;9.818;2023-08-06T04:57:20;14.10;99.90
1948;DHT22;974;52.400;9.818;2023-08-06T04:59:46;14.20;99.90
1948;DHT22;974;52.400;9.818;2023-08-06T05:02:11;14.20;99.90
1948;DHT22;974;52.400;9.818;2023-08-06T05:04:37;14.20;99.90
1948;DHT22;974;52.400;9.818;2023-08-06T05:07:03;14.20;99.90
1948;DHT22;974;52.400;9.818;2023-08-06T05:09:29;14.30;99.90
1948;DHT22;974;52.400;9.818;2023-08-06T05:11:54;14.30;99.90
1948;DHT22;974;52.400;9.818;2023-08-06T05:14:19;14.30;99.90
1948;DHT22;974;52.400;9.818;2023-08-06T05:16:45;14.30;99.90
1948;DHT22;974;52.400;9.818;2023-08-06T05:19:11;14.40;99.90
1948;DHT22;974;52.400;9.818;2023-08-06T05:21:36;14.40;99.90
1948;DHT22;974;52.400;9.818;2023-08-06T05:24:02;14.40;99.90
1948;DHT22;974;52.400;9.818;2023-08-06T05:26:27;14.40;99.90
1948;DHT22;974;52.400;9.818;2023-08-06T05:28:53;14.50;99.90
1948;DHT22;974;52.400;9.818;2023-08-06T05:31:21;14.50;99.90
1948;DHT22;974;52.400;9.818;2023-08-06T05:33:47;14.50;99.90
1948;DHT22;974;52.400;9.818;2023-08-06T05:36:12;14.60;99.90
1948;DHT22;974;52.400;9.818;2023-08-06T05:38:38;14.60;99.90
1948;DHT22;974;52.400;9.818;2023-08-06T05:41:07;14.60;99.90
1948;DHT22;974;52.400;9.818;2023-08-06T05:43:32;14.60;99.90
1948;DHT22;974;52.400;9.818;2023-08-06T05:45:58;14.60;99.90
1948;DHT22;974;52.400;9.818;2023-08-06T05:48:23;14.60;99.90
1948;DHT22;974;52.400;9.818;2023-08-06T05:50:51;14.60;99.90
1948;DHT22;974;52.400;9.818;2023-08-06T05:53:16;14.60;99.90
1948;DHT22;974;52.400;9.818;2023-08-06T05:55:42;14.60;99.90
1948;DHT22;974;52.400;9.818;2023-08-06T05:58:08;14.60;99.90
1948;DHT22;974;52.400;9.818;2023-08-06T06:00:34;14.60;99.90
1948;DHT22;974;52.400;9.818;2023-08-06T06:03:00;14.60;99.90
1948;DHT22;974;52.400;9.818;2023-08-06T06:05:26;14.70;99.90
1948;DHT22;974;52.400;9.818;2023-08-06T06:07:51;14.70;99.90
1948;DHT22;974;52.400;9.818;2023-08-06T06:10:17;14.70;99.90
1948;DHT22;974;52.400;9.818;2023-08-06T06:12:42;14.80;99.90
1948;DHT22;974;52.400;9.818;2023-08-06T06:15:08;14.80;99.90
1948;DHT22;974;52.400;9.818;2023-08-06T06:17:33;14.80;99.90
1948;DHT22;974;52.400;9.818;2023-08-06T06:19:59;14.80;99.90
1948;DHT22;974;52.400;9.818;2023-08-06T06:22:24;14.90;99.90
1948;DHT22;974;52.400;9.818;2023-08-06T06:24:50;14.90;99.90
1948;DHT22;974;52.400;9.818;2023-08-06T06:27:16;14.90;99.90
1948;DHT22;974;52.400;9.818;2023-08-06T06:29:41;14.90;99.90
1948;DHT22;974;52.400;9.818;2023-08-06T06:32:07;14.90;99.90
1948;DHT22;974;52.400;9.818;2023-08-06T06:34:32;14.90;99.90
1948;DHT22;974;52.400;9.818;2023-08-06T06:36:58;14.90;99.90
1948;DHT22;974;52.400;9.818;2023-08-06T06:39:23;14.90;99.90
1948;DHT22;974;52.400;9.818;2023-08-06T06:41:55;14.90;99.90
1948;DHT22;974;52.400;9.818;2023-08-06T06:44:20;14.90;99.90
1948;DHT22;974;52.400;9.818;2023-08-06T06:46:46;15.00;99.90
1948;DHT22;974;52.400;9.818;2023-08-06T06:49:12;15.00;99.90
1948;DHT22;974;52.400;9.818;2023-08-06T06:51:37;15.00;99.90
1948;DHT22;974;52.400;9.818;2023-08-06T06:54:03;15.00;99.90
1948;DHT22;974;52.400;9.818;2023-08-06T06:56:28;15.00;99.90
1948;DHT22;974;52.400;9.818;2023-08-06T06:58:54;15.00;99.90
1948;DHT22;974;52.400;9.818;2023-08-06T07:01:19;15.00;99.90
1948;DHT22;974;52.400;9.818;2023-08-06T07:03:45;15.10;99.90
1948;DHT22;974;52.400;9.818;2023-08-06T07:06:10;15.10;99.90
1948;DHT22;974;52.400;9.818;2023-08-06T07:08:37;15.10;99.90
1948;DHT22;974;52.400;9.818;2023-08-06T07:11:04;15.20;99.90
1948;DHT22;974;52.400;9.818;2023-08-06T07:13:31;15.20;99.90
1948;DHT22;974;52.400;9.818;2023-08-06T07:15:56;15.30;99.90
1948;DHT22;974;52.400;9.818;2023-08-06T07:18:23;15.30;99.90
1948;DHT22;974;52.400;9.818;2023-08-06T07:20:53;15.40;99.90
1948;DHT22;974;52.400;9.818;2023-08-06T07:23:25;15.40;99.90
1948;DHT22;974;52.400;9.818;2023-08-06T07:25:51;15.40;99.90
1948;DHT22;974;52.400;9.818;2023-08-06T07:28:16;15.40;99.90
1948;DHT22;974;52.400;9.818;2023-08-06T07:30:43;15.50;99.90
1948;DHT22;974;52.400;9.818;2023-08-06T07:33:09;15.60;99.90
1948;DHT22;974;52.400;9.818;2023-08-06T07:35:35;15.60;99.90
1948;DHT22;974;52.400;9.818;2023-08-06T07:38:01;15.70;99.90
1948;DHT22;974;52.400;9.818;2023-08-06T07:40:29;15.70;99.90
1948;DHT22;974;52.400;9.818;2023-08-06T07:42:55;15.80;99.90
1948;DHT22;974;52.400;9.818;2023-08-06T07:45:21;15.80;99.90
1948;DHT22;974;52.400;9.818;2023-08-06T07:47:46;15.80;99.90
1948;DHT22;974;52.400;9.818;2023-08-06T07:50:12;15.90;99.90
1948;DHT22;974;52.400;9.818;2023-08-06T07:52:38;15.90;99.90
1948;DHT22;974;52.400;9.818;2023-08-06T07:55:04;15.90;99.90
1948;DHT22;974;52.400;9.818;2023-08-06T07:57:36;16.00;99.90
1948;DHT22;974;52.400;9.818;2023-08-06T08:00:03;16.00;99.90
1948;DHT22;974;52.400;9.818;2023-08-06T08:02:29;16.00;99.90
1948;DHT22;974;52.400;9.818;2023-08-06T08:04:55;16.00;99.90
1948;DHT22;974;52.400;9.818;2023-08-06T08:07:21;16.10;99.90
1948;DHT22;974;52.400;9.818;2023-08-06T08:09:46;16.10;99.90
1948;DHT22;974;52.400;9.818;2023-08-06T08:12:13;16.20;99.90
1948;DHT22;974;52.400;9.818;2023-08-06T08:14:39;16.20;99.90
1948;DHT22;974;52.400;9.818;2023-08-06T08:17:07;16.30;99.90
1948;DHT22;974;52.400;9.818;2023-08-06T08:19:33;16.20;99.90
1948;DHT22;974;52.400;9.818;2023-08-06T08:21:58;16.30;99.90
1948;DHT22;974;52.400;9.818;2023-08-06T08:24:24;16.30;99.90
1948;DHT22;974;52.400;9.818;2023-08-06T08:26:50;16.30;99.90
1948;DHT22;974;52.400;9.818;2023-08-06T08:29:16;16.40;99.90
1948;DHT22;974;52.400;9.818;2023-08-06T08:31:42;16.40;99.90
1948;DHT22;974;52.400;9.818;2023-08-06T08:34:08;16.40;99.90
1948;DHT22;974;52.400;9.818;2023-08-06T08:36:34;16.50;99.90
1948;DHT22;974;52.400;9.818;2023-08-06T08:38:59;16.50;99.90
1948;DHT22;974;52.400;9.818;2023-08-06T08:41:30;16.60;99.90
1948;DHT22;974;52.400;9.818;2023-08-06T08:43:56;16.60;99.90
1948;DHT22;974;52.400;9.818;2023-08-06T08:46:24;16.50;99.90
1948;DHT22;974;52.400;9.818;2023-08-06T08:48:51;16.60;99.90
1948;DHT22;974;52.400;9.818;2023-08-06T08:51:17;16.60;99.90
1948;DHT22;974;52.400;9.818;2023-08-06T08:53:44;16.70;99.90
1948;DHT22;974;52.400;9.818;2023-08-06T08:56:11;16.80;99.90
1948;DHT22;974;52.400;9.818;2023-08-06T08:58:40;16.90;99.90
1948;DHT22;974;52.400;9.818;2023-08-06T09:01:07;17.00;99.90
1948;DHT22;974;52.400;9.818;2023-08-06T09:03:35;17.00;99.90
1948;DHT22;974;52.400;9.818;2023-08-06T09:06:04;17.00;99.90
1948;DHT22;974;52.400;9.818;2023-08-06T09:08:41;17.00;99.90
1948;DHT22;974;52.400;9.818;2023-08-06T09:11:09;17.10;99.90
1948;DHT22;974;52.400;9.818;2023-08-06T09:13:37;17.10;99.90
1948;DHT22;974;52.400;9.818;2023-08-06T09:16:03;17.20;99.90
1948;DHT22;974;52.400;9.818;2023-08-06T09:18:32;17.10;99.90
1948;DHT22;974;52.400;9.818;2023-08-06T09:21:01;17.10;99.90
1948;DHT22;974;52.400;9.818;2023-08-06T09:23:30;17.20;99.90
1948;DHT22;974;52.400;9.818;2023-08-06T09:25:57;17.20;99.90
1948;DHT22;974;52.400;9.818;2023-08-06T09:28:23;17.30;99.90
1948;DHT22;974;52.400;9.818;2023-08-06T09:30:50;17.40;99.90
1948;DHT22;974;52.400;9.818;2023-08-06T09:33:19;17.40;99.90
1948;DHT22;974;52.400;9.818;2023-08-06T09:35:46;17.50;99.90
1948;DHT22;974;52.400;9.818;2023-08-06T09:38:12;17.50;99.90
1948;DHT22;974;52.400;9.818;2023-08-06T09:40:39;17.60;99.90
1948;DHT22;974;52.400;9.818;2023-08-06T09:43:05;17.60;99.90
1948;DHT22;974;52.400;9.818;2023-08-06T09:45:35;17.70;99.90
1948;DHT22;974;52.400;9.818;2023-08-06T09:48:05;17.80;99.90
1948;DHT22;974;52.400;9.818;2023-08-06T09:50:32;17.80;99.90
1948;DHT22;974;52.400;9.818;2023-08-06T09:52:59;18.00;99.90
1948;DHT22;974;52.400;9.818;2023-08-06T09:55:25;18.10;99.90
1948;DHT22;974;52.400;9.818;2023-08-06T09:57:54;18.10;99.90
1948;DHT22;974;52.400;9.818;2023-08-06T10:00:20;18.20;99.90
1948;DHT22;974;52.400;9.818;2023-08-06T10:02:46;18.30;99.90
1948;DHT22;974;52.400;9.818;2023-08-06T10:05:12;18.40;99.90
1948;DHT22;974;52.400;9.818;2023-08-06T10:07:37;18.40;99.90
1948;DHT22;974;52.400;9.818;2023-08-06T10:10:06;18.50;99.90
1948;DHT22;974;52.400;9.818;2023-08-06T10:12:59;18.60;99.90
1948;DHT22;974;52.400;9.818;2023-08-06T10:15:27;18.70;99.90
1948;DHT22;974;52.400;9.818;2023-08-06T10:17:56;18.60;99.90
1948;DHT22;974;52.400;9.818;2023-08-06T10:20:22;18.70;99.90
1948;DHT22;974;52.400;9.818;2023-08-06T10:23:05;18.80;99.90
1948;DHT22;974;52.400;9.818;2023-08-06T10:25:34;18.90;99.90
1948;DHT22;974;52.400;9.818;2023-08-06T10:28:06;18.90;99.90
1948;DHT22;974;52.400;9.818;2023-08-06T10:30:33;18.90;99.90
1948;DHT22;974;52.400;9.818;2023-08-06T10:33:03;19.00;99.90
1948;DHT22;974;52.400;9.818;2023-08-06T10:41:03;19.30;99.90
1948;DHT22;974;52.400;9.818;2023-08-06T10:43:33;19.50;99.90
1948;DHT22;974;52.400;9.818;2023-08-06T10:46:03;19.80;99.90
1948;DHT22;974;52.400;9.818;2023-08-06T10:48:35;20.00;99.90
1948;DHT22;974;52.400;9.818;2023-08-06T10:51:02;20.40;99.90
1948;DHT22;974;52.400;9.818;2023-08-06T10:53:28;20.70;99.90
1948;DHT22;974;52.400;9.818;2023-08-06T10:55:53;21.10;99.90
1948;DHT22;974;52.400;9.818;2023-08-06T10:58:19;21.70;99.90
1948;DHT22;974;52.400;9.818;2023-08-06T11:00:45;22.20;99.90
1948;DHT22;974;52.400;9.818;2023-08-06T11:03:11;22.70;99.90
1948;DHT22;974;52.400;9.818;2023-08-06T11:05:37;23.00;99.90
1948;DHT22;974;52.400;9.818;2023-08-06T11:08:02;23.40;99.90
1948;DHT22;974;52.400;9.818;2023-08-06T11:10:28;23.50;99.90
1948;DHT22;974;52.400;9.818;2023-08-06T11:12:54;23.50;99.90
1948;DHT22;974;52.400;9.818;2023-08-06T11:15:20;23.30;99.90
1948;DHT22;974;52.400;9.818;2023-08-06T11:17:46;23.00;99.90
1948;DHT22;974;52.400;9.818;2023-08-06T11:20:12;22.70;99.90
1948;DHT22;974;52.400;9.818;2023-08-06T11:22:38;22.30;99.90
1948;DHT22;974;52.400;9.818;2023-08-06T11:25:05;22.10;99.90
1948;DHT22;974;52.400;9.818;2023-08-06T11:27:31;21.80;99.90
1948;DHT22;974;52.400;9.818;2023-08-06T11:29:56;21.50;99.90
1948;DHT22;974;52.400;9.818;2023-08-06T11:32:22;21.30;99.90
1948;DHT22;974;52.400;9.818;2023-08-06T11:34:48;21.20;99.90
1948;DHT22;974;52.400;9.818;2023-08-06T11:37:13;21.60;99.90
1948;DHT22;974;52.400;9.818;2023-08-06T11:39:46;22.90;99.90
1948;DHT22;974;52.400;9.818;2023-08-06T11:42:12;25.00;99.90
1948;DHT22;974;52.400;9.818;2023-08-06T11:44:37;27.20;99.90
1948;DHT22;974;52.400;9.818;2023-08-06T11:47:04;29.20;99.90
1948;DHT22;974;52.400;9.818;2023-08-06T11:49:38;30.00;99.90
1948;DHT22;974;52.400;9.818;2023-08-06T11:55:03;26.60;99.90
1948;DHT22;974;52.400;9.818;2023-08-06T11:57:30;25.60;99.90
1948;DHT22;974;52.400;9.818;2023-08-06T12:00:04;24.90;99.90
1948;DHT22;974;52.400;9.818;2023-08-06T12:02:32;24.10;99.90
1948;DHT22;974;52.400;9.818;2023-08-06T12:05:11;23.50;99.90
1948;DHT22;974;52.400;9.818;2023-08-06T12:07:41;23.40;99.90
1948;DHT22;974;52.400;9.818;2023-08-06T12:10:08;26.90;99.90
1948;DHT22;974;52.400;9.818;2023-08-06T12:12:34;27.20;99.90
1948;DHT22;974;52.400;9.818;2023-08-06T12:15:00;27.60;99.90
1948;DHT22;974;52.400;9.818;2023-08-06T12:17:26;27.60;99.90
1948;DHT22;974;52.400;9.818;2023-08-06T12:19:52;27.80;99.90
1948;DHT22;974;52.400;9.818;2023-08-06T12:22:18;27.90;99.90
1948;DHT22;974;52.400;9.818;2023-08-06T12:24:45;27.80;99.90
1948;DHT22;974;52.400;9.818;2023-08-06T12:27:11;27.80;99.90
1948;DHT22;974;52.400;9.818;2023-08-06T12:29:40;27.30;99.90
1948;DHT22;974;52.400;9.818;2023-08-06T12:32:06;27.10;99.90
1948;DHT22;974;52.400;9.818;2023-08-06T12:34:31;26.90;99.90
1948;DHT22;974;52.400;9.818;2023-08-06T12:36:57;26.40;99.90
1948;DHT22;974;52.400;9.818;2023-08-06T12:39:22;26.10;99.90
1948;DHT22;974;52.400;9.818;2023-08-06T12:41:48;25.60;99.90
1948;DHT22;974;52.400;9.818;2023-08-06T12:44:14;25.20;99.90
1948;DHT22;974;52.400;9.818;2023-08-06T12:46:39;25.00;99.90
1948;DHT22;974;52.400;9.818;2023-08-06T12:49:05;25.00;99.90
1948;DHT22;974;52.400;9.818;2023-08-06T12:51:31;24.90;99.90
1948;DHT22;974;52.400;9.818;2023-08-06T12:54:08;24.70;99.90
1948;DHT22;974;52.400;9.818;2023-08-06T12:56:34;24.50;99.90
1948;DHT22;974;52.400;9.818;2023-08-06T12:58:59;24.10;99.90
1948;DHT22;974;52.400;9.818;2023-08-06T13:01:28;23.90;99.90
1948;DHT22;974;52.400;9.818;2023-08-06T13:03:54;23.70;99.90
1948;DHT22;974;52.400;9.818;2023-08-06T13:06:19;23.40;99.90
1948;DHT22;974;52.400;9.818;2023-08-06T13:08:45;23.50;99.90
1948;DHT22;974;52.400;9.818;2023-08-06T13:11:11;23.40;99.90
1948;DHT22;974;52.400;9.818;2023-08-06T13:13:36;23.30;99.90
1948;DHT22;974;52.400;9.818;2023-08-06T13:16:02;23.40;99.90
1948;DHT22;974;52.400;9.818;2023-08-06T13:18:27;23.20;99.90
1948;DHT22;974;52.400;9.818;2023-08-06T13:20:54;23.10;99.90
1948;DHT22;974;52.400;9.818;2023-08-06T13:23:20;22.80;99.90
1948;DHT22;974;52.400;9.818;2023-08-06T13:25:46;22.50;99.90
1948;DHT22;974;52.400;9.818;2023-08-06T13:28:12;22.30;99.90
1948;DHT22;974;52.400;9.818;2023-08-06T13:30:39;22.20;99.90
1948;DHT22;974;52.400;9.818;2023-08-06T13:33:08;22.10;99.90
1948;DHT22;974;52.400;9.818;2023-08-06T13:35:33;22.10;99.90
1948;DHT22;974;52.400;9.818;2023-08-06T13:37:59;22.30;99.90
1948;DHT22;974;52.400;9.818;2023-08-06T13:40:24;22.50;99.90
1948;DHT22;974;52.400;9.818;2023-08-06T13:42:53;22.50;99.90
1948;DHT22;974;52.400;9.818;2023-08-06T13:45:18;22.60;99.90
1948;DHT22;974;52.400;9.818;2023-08-06T13:47:44;22.70;99.90
1948;DHT22;974;52.400;9.818;2023-08-06T13:50:09;22.70;99.90
1948;DHT22;974;52.400;9.818;2023-08-06T13:52:35;22.70;99.90
1948;DHT22;974;52.400;9.818;2023-08-06T13:55:01;22.60;99.90
1948;DHT22;974;52.400;9.818;2023-08-06T13:57:27;22.60;99.90
1948;DHT22;974;52.400;9.818;2023-08-06T13:59:52;22.60;99.90
1948;DHT22;974;52.400;9.818;2023-08-06T14:02:21;22.50;99.90
1948;DHT22;974;52.400;9.818;2023-08-06T14:04:47;22.50;99.90
1948;DHT22;974;52.400;9.818;2023-08-06T14:07:15;22.50;99.90
1948;DHT22;974;52.400;9.818;2023-08-06T14:09:41;22.40;99.90
1948;DHT22;974;52.400;9.818;2023-08-06T14:12:07;22.30;99.90
1948;DHT22;974;52.400;9.818;2023-08-06T14:14:33;22.20;99.90
1948;DHT22;974;52.400;9.818;2023-08-06T14:16:59;22.10;99.90
1948;DHT22;974;52.400;9.818;2023-08-06T14:19:25;22.00;99.90
1948;DHT22;974;52.400;9.818;2023-08-06T14:21:50;21.80;99.90
1948;DHT22;974;52.400;9.818;2023-08-06T14:24:15;21.70;99.90
1948;DHT22;974;52.400;9.818;2023-08-06T14:26:41;21.60;99.90
1948;DHT22;974;52.400;9.818;2023-08-06T14:29:10;21.60;99.90
1948;DHT22;974;52.400;9.818;2023-08-06T14:31:36;21.50;99.90
1948;DHT22;974;52.400;9.818;2023-08-06T14:34:01;21.50;99.90
1948;DHT22;974;52.400;9.818;2023-08-06T14:36:27;21.50;99.90
1948;DHT22;974;52.400;9.818;2023-08-06T14:38:52;21.40;99.90
1948;DHT22;974;52.400;9.818;2023-08-06T14:41:18;21.40;99.90
1948;DHT22;974;52.400;9.818;2023-08-06T14:43:43;21.30;99.90
1948;DHT22;974;52.400;9.818;2023-08-06T14:46:09;21.20;99.90
1948;DHT22;974;52.400;9.818;2023-08-06T14:48:34;21.20;99.90
1948;DHT22;974;52.400;9.818;2023-08-06T14:51:03;21.10;99.90
1948;DHT22;974;52.400;9.818;2023-08-06T14:53:29;21.00;99.90
1948;DHT22;974;52.400;9.818;2023-08-06T14:55:54;21.00;99.90
1948;DHT22;974;52.400;9.818;2023-08-06T14:58:20;20.90;99.90
1948;DHT22;974;52.400;9.818;2023-08-06T15:00:45;20.80;99.90
1948;DHT22;974;52.400;9.818;2023-08-06T15:03:11;20.80;99.90
1948;DHT22;974;52.400;9.818;2023-08-06T15:05:36;20.80;99.90
1948;DHT22;974;52.400;9.818;2023-08-06T15:08:02;20.80;99.90
1948;DHT22;974;52.400;9.818;2023-08-06T15:10:28;20.80;99.90
1948;DHT22;974;52.400;9.818;2023-08-06T15:12:56;20.70;99.90
1948;DHT22;974;52.400;9.818;2023-08-06T15:15:22;20.70;99.90
1948;DHT22;974;52.400;9.818;2023-08-06T15:17:48;20.70;99.90
1948;DHT22;974;52.400;9.818;2023-08-06T15:20:14;20.70;99.90
1948;DHT22;974;52.400;9.818;2023-08-06T15:22:42;20.60;99.90
1948;DHT22;974;52.400;9.818;2023-08-06T15:25:07;20.50;99.90
1948;DHT22;974;52.400;9.818;2023-08-06T15:27:33;20.50;99.90
1948;DHT22;974;52.400;9.818;2023-08-06T15:30:00;20.40;99.90
1948;DHT22;974;52.400;9.818;2023-08-06T15:32:26;20.40;99.90
1948;DHT22;974;52.400;9.818;2023-08-06T15:34:52;20.40;99.90
1948;DHT22;974;52.400;9.818;2023-08-06T15:37:18;20.40;99.90
1948;DHT22;974;52.400;9.818;2023-08-06T15:39:44;20.40;99.90
1948;DHT22;974;52.400;9.818;2023-08-06T15:42:10;20.40;99.90
1948;DHT22;974;52.400;9.818;2023-08-06T15:44:35;20.40;99.90
1948;DHT22;974;52.400;9.818;2023-08-06T15:47:01;20.40;99.90
1948;DHT22;974;52.400;9.818;2023-08-06T15:49:26;20.40;99.90
1948;DHT22;974;52.400;9.818;2023-08-06T15:51:52;20.40;99.90
1948;DHT22;974;52.400;9.818;2023-08-06T15:54:20;20.40;99.90
1948;DHT22;974;52.400;9.818;2023-08-06T15:56:45;20.30;99.90
1948;DHT22;974;52.400;9.818;2023-08-06T15:59:31;20.20;99.90
1948;DHT22;974;52.400;9.818;2023-08-06T16:01:57;20.20;99.90
1948;DHT22;974;52.400;9.818;2023-08-06T16:04:24;20.10;99.90
1948;DHT22;974;52.400;9.818;2023-08-06T16:06:50;20.10;99.90
1948;DHT22;974;52.400;9.818;2023-08-06T16:09:22;20.10;99.90
1948;DHT22;974;52.400;9.818;2023-08-06T16:11:56;20.20;99.90
1948;DHT22;974;52.400;9.818;2023-08-06T16:14:22;20.30;99.90
1948;DHT22;974;52.400;9.818;2023-08-06T16:16:48;20.30;99.90
1948;DHT22;974;52.400;9.818;2023-08-06T16:19:13;20.40;99.90
1948;DHT22;974;52.400;9.818;2023-08-06T16:21:39;20.50;99.90
1948;DHT22;974;52.400;9.818;2023-08-06T16:24:04;20.50;99.90
1948;DHT22;974;52.400;9.818;2023-08-06T16:26:31;20.60;99.90